Lanzarote > ESTACION METEOROLÓGICA Famara - Teguise

DATOS ACTUALES Online

Ultima actulizacion 18 minutos

18.2 ºC

Temperatura

44

Humedad (%)

1019.32

Presión (mb)

0

Precipitación (mm)

77.4 SW

Viento (Km/h)

DATOS DIARIOS

Temperatura últimas 24 horas (ºC)

Humedad últimas 24 horas (%)

Presión atmosférica últimas 24 horas (mb)

Precipitaciones últimas 23 horas (mm)

Viento últimas 24 horas (Km/h)

Hora Temperatura (°C) ºC Precipitación (mm) mm Presión (mb) mb Humedad (%) % Viento (Km/h) km/h
19 - 10:00 16.6 4.4 1019 49 76.7 SW
19 - 11:00 17.2 4.4 1020 46 70.1 SW
19 - 12:00 16.7 4.4 1019 53 61.7 SW
19 - 13:00 16.3 4.4 1019 63 57.6 SW
19 - 14:00 16.1 4.4 1019 65 45.3 SW
19 - 15:00 16.2 4.5 1018 65 46.2 SW
19 - 16:00 16.9 4.5 1018 63 51.8 SW
19 - 17:00 17.1 4.5 1018 61 56.5 SW
19 - 18:00 17.2 4.5 1018 61 57.4 SW
19 - 19:00 17.7 4.5 1018 58 61 SW
19 - 20:00 18 4.5 1019 54 61.1 SW
19 - 21:00 18.4 4.5 1019 52 54.2 SW
19 - 22:00 18.4 4.5 1020 53 59 SW
19 - 23:00 18.6 4.5 1019 45 61.3 SW
20 - 00:00 18.4 0 1019 45 65.2 SW
20 - 01:00 18.4 0 1019 43 64.2 SW
20 - 02:00 18.2 0 1019 45 55.3 SW
20 - 03:00 18 0 1018 42 62.6 SW
20 - 04:00 17.9 0 1018 40 68.1 SW
20 - 05:00 17.6 0 1018 44 66.9 SW
20 - 06:00 17.3 0 1018 43 58.3 SW
20 - 07:00 17.2 0 1019 46 64.3 SW
20 - 08:00 17.3 0 1019 47 65.2 SW
20 - 09:00 18.2 0 1019 44 77.4 SW
20 - 10:00
Apalmet utiliza cookies propias y de terceros para mejorar la usabilidad y la experiencia web. Política de cookies.